Time;durP1;ratioP1;P1;durP2;ratioP2;P2;SDS_P1;SDS_P2;PMS_P1;PMS_P2;Temp;Humidity;BMP_temperature;BMP_pressure;BME280_temperature;BME280_humidity;BME280_pressure;Samples;Min_cycle;Max_cycle;Signal;HPM_P1;HPM_P2
2021/05/20 00:05:01;;;;;;;1.77;1.00;;;10.00;99.90;;;;;;6684835;88;20214;-76
2021/05/20 00:15:05;;;;;;;2.25;1.08;;;9.90;99.90;;;;;;6682339;88;20637;-76
2021/05/20 00:25:06;;;;;;;2.15;1.10;;;9.90;99.90;;;;;;6686048;88;20248;-77
2021/05/20 00:35:08;;;;;;;2.33;1.00;;;10.20;99.90;;;;;;6686059;88;20224;-76
2021/05/20 00:45:09;;;;;;;2.83;1.30;;;10.30;99.90;;;;;;6689323;88;20312;-76
2021/05/20 00:55:10;;;;;;;2.30;1.60;;;10.10;99.90;;;;;;6708057;77;20350;-78
2021/05/20 01:05:13;;;;;;;4.15;2.12;;;10.00;99.90;;;;;;6715146;88;20760;-78
2021/05/20 01:15:19;;;;;;;2.97;2.17;;;10.00;99.90;;;;;;6709241;88;20193;-79
2021/05/20 01:25:20;;;;;;;;;;;10.00;99.90;;;;;;6713948;88;20182;-80
2021/05/20 01:35:20;;;;;;;4.47;3.00;;;9.90;99.90;;;;;;6707882;88;20193;-80
2021/05/20 01:45:21;;;;;;;6.20;3.47;;;9.90;99.90;;;;;;6723559;88;20232;-77
2021/05/20 01:55:21;;;;;;;9.35;3.60;;;9.90;99.90;;;;;;6724652;88;20225;-79
2021/05/20 02:05:22;;;;;;;7.87;3.90;;;9.90;99.90;;;;;;6725348;88;20575;-78
2021/05/20 02:15:23;;;;;;;5.47;3.92;;;10.00;99.90;;;;;;6724908;88;20210;-77
2021/05/20 02:25:24;;;;;;;6.07;3.60;;;10.00;99.90;;;;;;6725061;88;20213;-79
2021/05/20 02:35:25;;;;;;;6.97;4.00;;;10.20;99.90;;;;;;6738386;88;20365;-79
2021/05/20 02:45:27;;;;;;;8.05;3.90;;;10.20;99.90;;;;;;6729893;88;20174;-78
2021/05/20 02:55:27;;;;;;;7.28;4.53;;;10.20;99.90;;;;;;6730152;88;20600;-79
2021/05/20 03:05:30;;;;;;;6.68;4.25;;;10.20;99.90;;;;;;6726366;88;20260;-79
2021/05/20 03:15:30;;;;;;;6.55;4.03;;;10.20;99.90;;;;;;6725307;88;20231;-79
2021/05/20 03:25:34;;;;;;;7.40;4.62;;;10.20;99.90;;;;;;6725200;88;20246;-78
2021/05/20 03:35:35;;;;;;;8.93;4.15;;;10.30;99.90;;;;;;6721943;88;20313;-78
2021/05/20 03:45:35;;;;;;;8.15;5.68;;;10.50;99.90;;;;;;6724547;88;20213;-78
2021/05/20 03:55:36;;;;;;;10.07;6.47;;;10.30;99.90;;;;;;6729362;88;20221;-80
2021/05/20 04:05:36;;;;;;;16.45;7.72;;;10.20;99.90;;;;;;6733088;88;20201;-80
2021/05/20 04:15:37;;;;;;;14.38;8.80;;;10.10;99.90;;;;;;6740036;88;20220;-79
2021/05/20 04:25:38;;;;;;;13.05;8.07;;;10.10;99.90;;;;;;6736783;88;20646;-79
2021/05/20 04:35:38;;;;;;;15.27;8.82;;;10.20;99.90;;;;;;6740023;88;20189;-79
2021/05/20 04:45:42;;;;;;;16.35;10.43;;;10.30;99.90;;;;;;6732090;88;20212;-77
2021/05/20 04:55:42;;;;;;;20.98;12.02;;;10.30;99.90;;;;;;6730818;88;20237;-79
2021/05/20 05:05:43;;;;;;;22.45;12.40;;;10.50;99.90;;;;;;6733726;88;20211;-79
2021/05/20 05:15:43;;;;;;;25.83;14.87;;;10.60;99.90;;;;;;6735723;88;20297;-79
2021/05/20 05:25:48;;;;;;;29.52;15.23;;;10.70;99.90;;;;;;6731873;88;20186;-78
2021/05/20 05:35:49;;;;;;;33.33;17.60;;;10.80;99.90;;;;;;6727199;88;20215;-78
2021/05/20 05:45:49;;;;;;;33.75;19.25;;;10.80;99.90;;;;;;6736569;88;20192;-81
2021/05/20 05:55:51;;;;;;;37.13;18.92;;;10.60;99.90;;;;;;6751689;88;20146;-82
2021/05/20 06:05:52;;;;;;;38.03;21.60;;;10.70;99.90;;;;;;6748742;88;20179;-79
2021/05/20 06:15:52;;;;;;;36.15;19.95;;;11.00;99.90;;;;;;6739750;88;20208;-76
2021/05/20 06:25:53;;;;;;;35.15;19.85;;;11.80;99.90;;;;;;6742938;88;20222;-79
2021/05/20 06:35:53;;;;;;;32.92;18.45;;;11.90;99.90;;;;;;6747854;88;20291;-81
2021/05/20 06:45:54;;;;;;;29.40;17.27;;;12.00;99.90;;;;;;6750902;87;20175;-78
2021/05/20 06:55:58;;;;;;;28.70;15.97;;;12.00;99.90;;;;;;6734023;77;20205;-77
2021/05/20 07:05:58;;;;;;;25.62;15.35;;;12.10;99.90;;;;;;6702285;88;20698;-77
2021/05/20 07:15:59;;;;;;;23.10;14.27;;;12.70;99.90;;;;;;6700303;88;20265;-77
2021/05/20 07:26:00;;;;;;;21.62;13.85;;;13.20;99.90;;;;;;6701148;88;20193;-77
2021/05/20 07:36:00;;;;;;;14.98;10.10;;;13.80;99.90;;;;;;6700460;88;20237;-77
2021/05/20 07:46:01;;;;;;;20.00;12.70;;;14.00;99.90;;;;;;6700070;88;20217;-77
2021/05/20 07:56:02;;;;;;;19.70;12.57;;;14.80;99.90;;;;;;6697232;88;20227;-77
2021/05/20 08:16:22;;;;;;;18.27;11.75;;;14.60;99.90;;;;;;6701954;88;20195;-76
2021/05/20 08:26:24;;;;;;;14.55;9.27;;;16.60;99.90;;;;;;6704462;88;20617;-78
2021/05/20 08:36:25;;;;;;;14.27;9.80;;;16.00;99.90;;;;;;6704126;88;20191;-77
2021/05/20 08:46:26;;;;;;;11.32;8.27;;;16.00;99.90;;;;;;6702444;88;20702;-78
2021/05/20 08:56:28;;;;;;;13.73;8.60;;;16.90;99.90;;;;;;6701873;88;20189;-77
2021/05/20 09:06:53;;;;;;;13.48;8.52;;;19.40;99.90;;;;;;6702152;88;20211;-77
2021/05/20 09:17:12;;;;;;;21.33;10.30;;;18.40;99.90;;;;;;6701262;88;20323;-77
2021/05/20 09:27:34;;;;;;;16.67;9.50;;;16.90;99.90;;;;;;6702567;88;20188;-78
2021/05/20 09:37:45;;;;;;;10.45;7.45;;;18.70;99.90;;;;;;6701189;88;20310;-77
2021/05/20 09:47:47;;;;;;;14.75;7.93;;;20.80;99.60;;;;;;6700250;88;20207;-77
2021/05/20 09:57:48;;;;;;;10.52;6.45;;;21.90;96.60;;;;;;6700865;88;20186;-77
2021/05/20 10:07:49;;;;;;;13.35;6.72;;;21.00;96.40;;;;;;6704148;88;20772;-77
2021/05/20 10:17:51;;;;;;;10.25;6.28;;;20.10;97.10;;;;;;6700625;88;20190;-77
2021/05/20 10:27:52;;;;;;;8.27;6.03;;;20.10;97.10;;;;;;6702312;88;20221;-77
2021/05/20 10:37:56;;;;;;;6.97;5.53;;;20.40;96.10;;;;;;6703206;88;20509;-78
2021/05/20 10:48:02;;;;;;;9.63;5.07;;;19.50;97.10;;;;;;6699353;88;20211;-77
2021/05/20 10:58:04;;;;;;;7.15;4.60;;;20.30;95.80;;;;;;6703150;88;20702;-76
2021/05/20 11:08:11;;;;;;;5.53;3.58;;;18.90;98.10;;;;;;6703418;88;20202;-78
2021/05/20 11:18:31;;;;;;;5.22;3.30;;;19.00;96.50;;;;;;6702311;88;20214;-77
2021/05/20 11:29:05;;;;;;;3.60;2.15;;;19.80;96.20;;;;;;6702231;88;20717;-76
2021/05/20 11:39:10;;;;;;;4.07;1.80;;;19.70;94.90;;;;;;6697508;88;20605;-77
2021/05/20 11:49:19;;;;;;;4.12;1.70;;;19.00;96.40;;;;;;6702963;88;20713;-76
2021/05/20 11:59:33;;;;;;;2.45;1.80;;;19.20;97.00;;;;;;6703602;88;20197;-76
2021/05/20 12:09:34;;;;;;;2.47;1.40;;;19.90;94.20;;;;;;6706045;88;20708;-76
2021/05/20 12:19:46;;;;;;;2.35;1.30;;;19.30;94.40;;;;;;6705988;88;20206;-76
2021/05/20 12:29:49;;;;;;;4.15;1.40;;;17.80;96.00;;;;;;6698447;88;20217;-76
2021/05/20 12:39:50;;;;;;;4.65;1.83;;;20.40;94.20;;;;;;6704059;88;20330;-76
2021/05/20 12:49:57;;;;;;;2.22;1.10;;;19.60;92.80;;;;;;6704271;88;20294;-76
2021/05/20 13:00:02;;;;;;;2.50;1.20;;;20.00;92.50;;;;;;6704898;88;20597;-76
2021/05/20 13:10:04;;;;;;;2.17;1.10;;;20.10;90.90;;;;;;6696572;88;20200;-77
2021/05/20 13:30:45;;;;;;;1.90;1.05;;;18.80;90.50;;;;;;6687319;88;20170;-77
2021/05/20 13:40:48;;;;;;;2.47;1.20;;;20.30;89.30;;;;;;6698066;88;20308;-78
2021/05/20 13:50:50;;;;;;;1.80;1.20;;;20.20;85.30;;;;;;6685545;88;20328;-79
2021/05/20 14:00:55;;;;;;;2.70;1.00;;;19.30;86.60;;;;;;6702384;88;20293;-77
2021/05/20 14:10:56;;;;;;;1.67;1.00;;;20.10;85.50;;;;;;6702317;88;20177;-77
2021/05/20 14:20:56;;;;;;;1.60;1.20;;;19.80;84.30;;;;;;6704472;88;20233;-78
2021/05/20 14:30:57;;;;;;;2.20;0.90;;;19.70;84.60;;;;;;6705556;88;20190;-81
2021/05/20 14:40:57;;;;;;;1.50;0.90;;;19.40;85.20;;;;;;6714257;88;20679;-80
2021/05/20 14:51:22;;;;;;;2.22;0.80;;;19.40;85.90;;;;;;6709496;88;20228;-79
2021/05/20 15:11:48;;;;;;;1.15;0.70;;;18.80;85.70;;;;;;6695462;88;20264;-77
2021/05/20 15:21:48;;;;;;;2.35;0.90;;;18.80;87.00;;;;;;6706290;88;20204;-77
2021/05/20 15:31:50;;;;;;;1.85;0.77;;;18.40;87.20;;;;;;6702280;88;20202;-78
2021/05/20 15:41:51;;;;;;;1.87;0.55;;;18.40;88.20;;;;;;6700168;88;20206;-78
2021/05/20 15:51:52;;;;;;;2.65;0.77;;;18.40;85.80;;;;;;6700112;88;20721;-78
2021/05/20 16:01:52;;;;;;;1.95;0.90;;;18.10;80.60;;;;;;6698614;88;20237;-76
2021/05/20 16:21:55;;;;;;;2.58;1.00;;;17.60;85.50;;;;;;6696900;88;20309;-76
2021/05/20 16:42:15;;;;;;;3.08;1.00;;;17.40;87.80;;;;;;6695406;88;20201;-77
2021/05/20 16:52:16;;;;;;;2.85;1.00;;;17.20;88.30;;;;;;6698469;88;20206;-77
2021/05/20 17:02:17;;;;;;;1.92;0.73;;;17.30;89.60;;;;;;6696830;88;20183;-77
2021/05/20 17:12:17;;;;;;;2.70;1.10;;;17.10;87.90;;;;;;6707677;88;20334;-77
2021/05/20 17:22:18;;;;;;;1.37;0.80;;;16.90;89.40;;;;;;6706577;88;20571;-77
2021/05/20 17:32:18;;;;;;;1.70;0.80;;;16.80;90.30;;;;;;6700800;88;20327;-77
2021/05/20 17:42:19;;;;;;;3.23;1.00;;;16.60;90.70;;;;;;6701781;88;20494;-76
2021/05/20 17:52:21;;;;;;;1.73;1.10;;;16.60;91.20;;;;;;6701313;88;20318;-76
2021/05/20 18:02:23;;;;;;;3.65;1.30;;;16.50;91.90;;;;;;6703060;88;20648;-77
2021/05/20 18:22:28;;;;;;;4.05;1.02;;;16.20;93.50;;;;;;6702548;88;20241;-78
2021/05/20 18:32:29;;;;;;;2.28;1.15;;;16.10;94.10;;;;;;6703644;88;20178;-78
2021/05/20 18:42:33;;;;;;;2.15;0.98;;;16.00;94.70;;;;;;6711364;88;20752;-78
2021/05/20 18:52:34;;;;;;;1.73;0.95;;;16.00;95.40;;;;;;6701554;88;20198;-78
2021/05/20 19:02:35;;;;;;;1.98;1.27;;;15.90;96.40;;;;;;6706531;88;20679;-78
2021/05/20 19:12:35;;;;;;;3.07;1.50;;;15.70;97.60;;;;;;6711332;88;20661;-78
2021/05/20 19:23:10;;;;;;;2.65;1.20;;;15.60;98.50;;;;;;6707726;88;20508;-78
2021/05/20 19:33:03;;;;;;;2.75;1.10;;;15.50;99.20;;;;;;6704752;88;20343;-76
2021/05/20 19:43:04;;;;;;;4.57;1.35;;;15.30;99.90;;;;;;6703009;88;20178;-78
2021/05/20 19:53:16;;;;;;;3.17;1.20;;;15.10;99.90;;;;;;6702995;88;20221;-75
2021/05/20 20:03:32;;;;;;;4.32;1.37;;;15.00;99.90;;;;;;6687036;89;20191;-77
2021/05/20 20:13:32;;;;;;;2.20;1.20;;;15.00;99.90;;;;;;6696890;88;20745;-78
2021/05/20 20:23:52;;;;;;;4.20;1.30;;;15.00;99.90;;;;;;6706638;88;20321;-78
2021/05/20 20:33:59;;;;;;;3.37;1.20;;;14.90;99.90;;;;;;6706508;88;20178;-78
2021/05/20 20:44:00;;;;;;;3.05;1.40;;;14.80;99.90;;;;;;6710099;88;20271;-77
2021/05/20 20:54:01;;;;;;;3.20;1.20;;;14.60;99.90;;;;;;6709919;88;20216;-78
2021/05/20 21:04:02;;;;;;;2.17;1.25;;;14.60;99.90;;;;;;6715114;88;20206;-76
2021/05/20 21:14:02;;;;;;;2.40;1.23;;;14.60;99.90;;;;;;6708911;88;20260;-77
2021/05/20 21:24:04;;;;;;;2.45;1.75;;;14.50;99.90;;;;;;6702352;88;20747;-77
2021/05/20 21:34:05;;;;;;;2.72;1.50;;;14.40;99.90;;;;;;6708333;88;20754;-76
2021/05/20 21:44:05;;;;;;;3.12;1.37;;;14.40;99.90;;;;;;6703796;88;20212;-77
2021/05/20 21:54:06;;;;;;;2.43;1.10;;;14.40;99.90;;;;;;6709779;88;20247;-77
2021/05/20 22:04:06;;;;;;;3.05;1.10;;;14.30;99.90;;;;;;6709352;88;21364;-76
2021/05/20 22:24:14;;;;;;;2.97;1.00;;;14.20;99.90;;;;;;6701110;88;20195;-77
2021/05/20 22:34:14;;;;;;;2.42;1.20;;;14.20;99.90;;;;;;6697458;88;20706;-77
2021/05/20 22:44:15;;;;;;;3.30;1.20;;;14.10;99.90;;;;;;6702259;88;20216;-78
2021/05/20 22:54:19;;;;;;;2.90;1.40;;;14.10;99.90;;;;;;6702603;88;20208;-76
2021/05/20 23:04:20;;;;;;;2.78;1.20;;;14.00;99.90;;;;;;6712956;88;20209;-77
2021/05/20 23:14:20;;;;;;;2.10;1.00;;;14.00;99.90;;;;;;6704254;88;20653;-76
2021/05/20 23:24:21;;;;;;;3.55;0.82;;;14.00;99.90;;;;;;6703635;88;20225;-77
2021/05/20 23:34:21;;;;;;;1.92;0.90;;;14.10;99.90;;;;;;6703358;88;20988;-76
2021/05/20 23:44:22;;;;;;;2.28;1.10;;;14.10;99.90;;;;;;6703045;88;20189;-76
2021/05/20 23:54:23;;;;;;;3.28;0.90;;;13.90;99.90;;;;;;6703277;88;20267;-76
